Time;durP1;ratioP1;P1;durP2;ratioP2;P2;SDS_P1;SDS_P2;PMS_P1;PMS_P2;Temp;Humidity;BMP_temperature;BMP_pressure;BME280_temperature;BME280_humidity;BME280_pressure;Samples;Min_cycle;Max_cycle;Signal;HPM_P1;HPM_P2
2022/11/21 00:00:00;;;;;;;2.4;2.4;;;;;;;4.8;100.0;100310;;;;
2022/11/21 00:01:00;;;;;;;2.4;2.4;;;;;;;4.8;100.0;100310;;;;
2022/11/21 00:02:00;;;;;;;2.4;2.4;;;;;;;4.8;100.0;100310;;;;
2022/11/21 00:03:00;;;;;;;2.4;2.4;;;;;;;4.7;100.0;100310;;;;
2022/11/21 00:04:00;;;;;;;2.4;2.4;;;;;;;4.7;100.0;100310;;;;
2022/11/21 00:05:00;;;;;;;2.4;2.4;;;;;;;4.8;100.0;100310;;;;
2022/11/21 00:06:02;;;;;;;2.4;2.4;;;;;;;4.8;100.0;100310;;;;
2022/11/21 00:07:00;;;;;;;2.4;2.4;;;;;;;4.8;100.0;100320;;;;
2022/11/21 00:08:00;;;;;;;2.4;2.4;;;;;;;4.8;100.0;100320;;;;
2022/11/21 00:09:00;;;;;;;2.4;2.4;;;;;;;4.8;100.0;100310;;;;
2022/11/21 00:10:00;;;;;;;2.4;2.4;;;;;;;4.8;100.0;100310;;;;
2022/11/21 00:11:00;;;;;;;2.3;2.3;;;;;;;4.7;100.0;100320;;;;
2022/11/21 00:12:00;;;;;;;2.3;2.3;;;;;;;4.7;100.0;100320;;;;
2022/11/21 00:13:00;;;;;;;2.3;2.3;;;;;;;4.7;100.0;100320;;;;
2022/11/21 00:14:00;;;;;;;2.3;2.3;;;;;;;4.7;100.0;100320;;;;
2022/11/21 00:15:00;;;;;;;2.3;2.3;;;;;;;4.7;100.0;100320;;;;
2022/11/21 00:16:04;;;;;;;2.3;2.3;;;;;;;4.7;100.0;100320;;;;
2022/11/21 00:17:00;;;;;;;2.3;2.3;;;;;;;4.7;100.0;100320;;;;
2022/11/21 00:18:01;;;;;;;2.3;2.3;;;;;;;4.7;100.0;100320;;;;
2022/11/21 00:19:00;;;;;;;2.3;2.3;;;;;;;4.6;100.0;100330;;;;
2022/11/21 00:20:00;;;;;;;2.3;2.3;;;;;;;4.6;100.0;100330;;;;
2022/11/21 00:21:10;;;;;;;2.3;2.3;;;;;;;4.7;100.0;100340;;;;
2022/11/21 00:22:00;;;;;;;2.3;2.3;;;;;;;4.7;100.0;100340;;;;
2022/11/21 00:23:00;;;;;;;2.3;2.3;;;;;;;4.6;100.0;100350;;;;
2022/11/21 00:24:00;;;;;;;2.3;2.3;;;;;;;4.6;100.0;100350;;;;
2022/11/21 00:25:00;;;;;;;2.3;2.3;;;;;;;4.6;100.0;100340;;;;
2022/11/21 00:26:04;;;;;;;2.3;2.3;;;;;;;4.6;100.0;100340;;;;
2022/11/21 00:27:00;;;;;;;2.3;2.3;;;;;;;4.6;100.0;100340;;;;
2022/11/21 00:28:00;;;;;;;2.3;2.3;;;;;;;4.6;100.0;100340;;;;
2022/11/21 00:29:00;;;;;;;2.3;2.3;;;;;;;4.7;100.0;100340;;;;
2022/11/21 00:30:00;;;;;;;2.3;2.3;;;;;;;4.7;100.0;100340;;;;
2022/11/21 00:31:00;;;;;;;2.0;2.0;;;;;;;4.7;100.0;100340;;;;
2022/11/21 00:32:00;;;;;;;2.0;2.0;;;;;;;4.7;100.0;100340;;;;
2022/11/21 00:33:00;;;;;;;2.0;2.0;;;;;;;4.7;100.0;100350;;;;
2022/11/21 00:34:00;;;;;;;2.0;2.0;;;;;;;4.7;100.0;100350;;;;
2022/11/21 00:35:00;;;;;;;2.0;2.0;;;;;;;4.8;100.0;100350;;;;
2022/11/21 00:36:06;;;;;;;2.0;2.0;;;;;;;4.8;100.0;100350;;;;
2022/11/21 00:37:00;;;;;;;2.0;2.0;;;;;;;4.8;100.0;100340;;;;
2022/11/21 00:38:00;;;;;;;2.0;2.0;;;;;;;4.8;100.0;100340;;;;
2022/11/21 00:39:00;;;;;;;2.0;2.0;;;;;;;4.8;100.0;100340;;;;
2022/11/21 00:40:00;;;;;;;2.0;2.0;;;;;;;4.8;100.0;100340;;;;
2022/11/21 00:41:00;;;;;;;2.0;2.0;;;;;;;4.8;100.0;100340;;;;
2022/11/21 00:42:00;;;;;;;2.0;2.0;;;;;;;4.8;100.0;100340;;;;
2022/11/21 00:43:00;;;;;;;2.0;2.0;;;;;;;4.7;100.0;100330;;;;
2022/11/21 00:44:00;;;;;;;2.0;2.0;;;;;;;4.7;100.0;100330;;;;
2022/11/21 00:45:00;;;;;;;2.0;2.0;;;;;;;4.8;100.0;100340;;;;
2022/11/21 00:46:01;;;;;;;2.0;2.0;;;;;;;4.8;100.0;100340;;;;
2022/11/21 00:47:00;;;;;;;2.0;2.0;;;;;;;4.7;100.0;100340;;;;
2022/11/21 00:48:00;;;;;;;2.0;2.0;;;;;;;4.7;100.0;100340;;;;
2022/11/21 00:49:00;;;;;;;2.0;2.0;;;;;;;4.8;100.0;100340;;;;
2022/11/21 00:50:00;;;;;;;2.0;2.0;;;;;;;4.8;100.0;100340;;;;
2022/11/21 00:51:00;;;;;;;2.4;2.4;;;;;;;4.8;100.0;100350;;;;
2022/11/21 00:52:00;;;;;;;2.4;2.4;;;;;;;4.8;100.0;100350;;;;
2022/11/21 00:53:00;;;;;;;2.4;2.4;;;;;;;4.7;100.0;100340;;;;
2022/11/21 00:54:00;;;;;;;2.4;2.4;;;;;;;4.7;100.0;100340;;;;
2022/11/21 00:55:00;;;;;;;2.4;2.4;;;;;;;4.7;100.0;100330;;;;
2022/11/21 00:56:00;;;;;;;2.4;2.4;;;;;;;4.7;100.0;100330;;;;
2022/11/21 00:57:00;;;;;;;2.4;2.4;;;;;;;4.7;100.0;100330;;;;
2022/11/21 00:58:00;;;;;;;2.4;2.4;;;;;;;4.7;100.0;100330;;;;
2022/11/21 00:59:00;;;;;;;2.4;2.4;;;;;;;4.7;100.0;100320;;;;
2022/11/21 01:00:00;;;;;;;2.4;2.4;;;;;;;4.7;100.0;100320;;;;
2022/11/21 01:01:02;;;;;;;2.4;2.4;;;;;;;4.7;100.0;100320;;;;
2022/11/21 01:02:00;;;;;;;2.4;2.4;;;;;;;4.7;100.0;100320;;;;
2022/11/21 01:03:00;;;;;;;2.4;2.4;;;;;;;4.7;100.0;100320;;;;
2022/11/21 01:04:00;;;;;;;2.4;2.4;;;;;;;4.7;100.0;100320;;;;
2022/11/21 01:05:00;;;;;;;2.4;2.4;;;;;;;4.7;100.0;100320;;;;
2022/11/21 01:06:04;;;;;;;2.4;2.4;;;;;;;4.7;100.0;100320;;;;
2022/11/21 01:07:00;;;;;;;2.4;2.4;;;;;;;4.8;100.0;100320;;;;
2022/11/21 01:08:00;;;;;;;2.4;2.4;;;;;;;4.8;100.0;100320;;;;
2022/11/21 01:09:00;;;;;;;2.4;2.4;;;;;;;4.7;100.0;100320;;;;
2022/11/21 01:10:00;;;;;;;2.4;2.4;;;;;;;4.7;100.0;100320;;;;
2022/11/21 01:11:02;;;;;;;2.3;2.3;;;;;;;4.6;100.0;100320;;;;
2022/11/21 01:12:00;;;;;;;2.3;2.3;;;;;;;4.6;100.0;100320;;;;
2022/11/21 01:13:00;;;;;;;2.3;2.3;;;;;;;4.7;100.0;100320;;;;
2022/11/21 01:14:00;;;;;;;2.3;2.3;;;;;;;4.7;100.0;100320;;;;
2022/11/21 01:15:00;;;;;;;2.3;2.3;;;;;;;4.7;100.0;100330;;;;
2022/11/21 01:16:02;;;;;;;2.3;2.3;;;;;;;4.7;100.0;100330;;;;
2022/11/21 01:17:00;;;;;;;2.3;2.3;;;;;;;4.7;100.0;100330;;;;
2022/11/21 01:18:00;;;;;;;2.3;2.3;;;;;;;4.7;100.0;100330;;;;
2022/11/21 01:19:00;;;;;;;2.3;2.3;;;;;;;4.7;100.0;100330;;;;
2022/11/21 01:20:00;;;;;;;2.3;2.3;;;;;;;4.7;100.0;100330;;;;
2022/11/21 01:21:00;;;;;;;2.3;2.3;;;;;;;4.7;100.0;100330;;;;
2022/11/21 01:22:00;;;;;;;2.3;2.3;;;;;;;4.7;100.0;100330;;;;
2022/11/21 01:23:00;;;;;;;2.3;2.3;;;;;;;4.6;100.0;100340;;;;
2022/11/21 01:24:01;;;;;;;2.3;2.3;;;;;;;4.6;100.0;100340;;;;
2022/11/21 01:25:00;;;;;;;2.3;2.3;;;;;;;4.7;100.0;100330;;;;
2022/11/21 01:26:01;;;;;;;2.3;2.3;;;;;;;4.7;100.0;100330;;;;
2022/11/21 01:27:00;;;;;;;2.3;2.3;;;;;;;4.6;100.0;100340;;;;
2022/11/21 01:28:00;;;;;;;2.3;2.3;;;;;;;4.6;100.0;100340;;;;
2022/11/21 01:29:00;;;;;;;2.3;2.3;;;;;;;4.6;100.0;100340;;;;
2022/11/21 01:30:00;;;;;;;2.3;2.3;;;;;;;4.6;100.0;100340;;;;
2022/11/21 01:31:10;;;;;;;2.3;2.3;;;;;;;4.7;100.0;100330;;;;
2022/11/21 01:32:00;;;;;;;2.3;2.3;;;;;;;4.7;100.0;100330;;;;
2022/11/21 01:33:00;;;;;;;2.3;2.3;;;;;;;4.7;100.0;100330;;;;
2022/11/21 01:34:00;;;;;;;2.3;2.3;;;;;;;4.7;100.0;100330;;;;
2022/11/21 01:35:00;;;;;;;2.3;2.3;;;;;;;4.6;100.0;100330;;;;
2022/11/21 01:36:08;;;;;;;2.3;2.3;;;;;;;4.6;100.0;100330;;;;
2022/11/21 01:37:01;;;;;;;2.3;2.3;;;;;;;4.6;100.0;100340;;;;
2022/11/21 01:38:00;;;;;;;2.3;2.3;;;;;;;4.6;100.0;100340;;;;
2022/11/21 01:39:01;;;;;;;2.3;2.3;;;;;;;4.7;100.0;100340;;;;
2022/11/21 01:40:00;;;;;;;2.3;2.3;;;;;;;4.7;100.0;100340;;;;
2022/11/21 01:41:00;;;;;;;2.3;2.3;;;;;;;4.6;100.0;100340;;;;
2022/11/21 01:42:00;;;;;;;2.3;2.3;;;;;;;4.6;100.0;100340;;;;
2022/11/21 01:43:02;;;;;;;2.3;2.3;;;;;;;4.6;100.0;100340;;;;
2022/11/21 01:44:00;;;;;;;2.3;2.3;;;;;;;4.6;100.0;100340;;;;
2022/11/21 01:45:00;;;;;;;2.3;2.3;;;;;;;4.6;100.0;100340;;;;
2022/11/21 01:46:03;;;;;;;2.3;2.3;;;;;;;4.6;100.0;100340;;;;
2022/11/21 01:47:00;;;;;;;2.3;2.3;;;;;;;4.6;100.0;100330;;;;
2022/11/21 01:48:00;;;;;;;2.3;2.3;;;;;;;4.6;100.0;100330;;;;
2022/11/21 01:49:01;;;;;;;2.3;2.3;;;;;;;4.6;100.0;100340;;;;
2022/11/21 01:50:00;;;;;;;2.3;2.3;;;;;;;4.6;100.0;100340;;;;
2022/11/21 01:51:03;;;;;;;2.1;2.1;;;;;;;4.6;100.0;100330;;;;
2022/11/21 01:52:02;;;;;;;2.1;2.1;;;;;;;4.6;100.0;100330;;;;
2022/11/21 01:53:00;;;;;;;2.1;2.1;;;;;;;4.6;100.0;100330;;;;
2022/11/21 01:54:00;;;;;;;2.1;2.1;;;;;;;4.6;100.0;100330;;;;
2022/11/21 01:55:01;;;;;;;2.1;2.1;;;;;;;4.4;100.0;100330;;;;
2022/11/21 01:56:00;;;;;;;2.1;2.1;;;;;;;4.4;100.0;100330;;;;
2022/11/21 01:57:07;;;;;;;2.1;2.1;;;;;;;4.4;100.0;100330;;;;
2022/11/21 01:58:00;;;;;;;2.1;2.1;;;;;;;4.4;100.0;100330;;;;
2022/11/21 01:59:01;;;;;;;2.1;2.1;;;;;;;4.5;100.0;100330;;;;
2022/11/21 02:00:04;;;;;;;2.1;2.1;;;;;;;4.5;100.0;100330;;;;
2022/11/21 02:01:01;;;;;;;2.1;2.1;;;;;;;4.4;100.0;100330;;;;
2022/11/21 02:02:02;;;;;;;2.1;2.1;;;;;;;4.4;100.0;100330;;;;
2022/11/21 02:03:03;;;;;;;2.1;2.1;;;;;;;4.4;100.0;100320;;;;
2022/11/21 02:04:01;;;;;;;2.1;2.1;;;;;;;4.4;100.0;100320;;;;
2022/11/21 02:05:01;;;;;;;2.1;2.1;;;;;;;4.4;100.0;100330;;;;
2022/11/21 02:06:00;;;;;;;2.1;2.1;;;;;;;4.4;100.0;100330;;;;
2022/11/21 02:07:01;;;;;;;2.1;2.1;;;;;;;4.4;100.0;100330;;;;
2022/11/21 02:08:03;;;;;;;2.1;2.1;;;;;;;4.4;100.0;100330;;;;
2022/11/21 02:09:00;;;;;;;2.1;2.1;;;;;;;4.5;100.0;100330;;;;
2022/11/21 02:10:01;;;;;;;2.1;2.1;;;;;;;4.5;100.0;100330;;;;
2022/11/21 02:11:10;;;;;;;2.1;2.1;;;;;;;4.4;100.0;100330;;;;
2022/11/21 02:12:04;;;;;;;2.1;2.1;;;;;;;4.4;100.0;100330;;;;
2022/11/21 02:13:00;;;;;;;2.1;2.1;;;;;;;4.4;100.0;100330;;;;
2022/11/21 02:14:00;;;;;;;2.1;2.1;;;;;;;4.4;100.0;100330;;;;
2022/11/21 02:15:00;;;;;;;2.1;2.1;;;;;;;4.4;100.0;100330;;;;
2022/11/21 02:16:01;;;;;;;2.1;2.1;;;;;;;4.4;100.0;100330;;;;
2022/11/21 02:17:03;;;;;;;2.1;2.1;;;;;;;4.4;100.0;100320;;;;
2022/11/21 02:18:00;;;;;;;2.1;2.1;;;;;;;4.4;100.0;100320;;;;
2022/11/21 02:19:00;;;;;;;2.1;2.1;;;;;;;4.3;100.0;100320;;;;
2022/11/21 02:20:03;;;;;;;2.1;2.1;;;;;;;4.3;100.0;100320;;;;
2022/11/21 02:21:10;;;;;;;2.1;2.1;;;;;;;4.3;100.0;100330;;;;
2022/11/21 02:22:04;;;;;;;2.1;2.1;;;;;;;4.3;100.0;100330;;;;
2022/11/21 02:23:01;;;;;;;2.1;2.1;;;;;;;4.3;100.0;100340;;;;
2022/11/21 02:24:06;;;;;;;2.1;2.1;;;;;;;4.3;100.0;100340;;;;
2022/11/21 02:25:01;;;;;;;2.1;2.1;;;;;;;4.3;100.0;100340;;;;
2022/11/21 02:26:00;;;;;;;2.1;2.1;;;;;;;4.3;100.0;100340;;;;
2022/11/21 02:27:00;;;;;;;2.1;2.1;;;;;;;4.3;100.0;100340;;;;
2022/11/21 02:28:01;;;;;;;2.1;2.1;;;;;;;4.3;100.0;100340;;;;
2022/11/21 02:29:00;;;;;;;2.1;2.1;;;;;;;4.3;100.0;100340;;;;
2022/11/21 02:30:01;;;;;;;2.3;2.3;;;;;;;4.3;100.0;100340;;;;
2022/11/21 02:31:00;;;;;;;2.3;2.3;;;;;;;4.3;100.0;100340;;;;
2022/11/21 02:32:04;;;;;;;2.3;2.3;;;;;;;4.3;100.0;100340;;;;
2022/11/21 02:33:02;;;;;;;2.3;2.3;;;;;;;4.3;100.0;100340;;;;
2022/11/21 02:34:00;;;;;;;2.3;2.3;;;;;;;4.3;100.0;100340;;;;
2022/11/21 02:35:00;;;;;;;2.3;2.3;;;;;;;4.3;100.0;100340;;;;
2022/11/21 02:36:01;;;;;;;2.3;2.3;;;;;;;4.3;100.0;100340;;;;
2022/11/21 02:37:01;;;;;;;2.3;2.3;;;;;;;4.2;100.0;100350;;;;
2022/11/21 02:38:02;;;;;;;2.3;2.3;;;;;;;4.2;100.0;100350;;;;
2022/11/21 02:39:00;;;;;;;2.3;2.3;;;;;;;4.2;100.0;100350;;;;
2022/11/21 02:40:02;;;;;;;2.3;2.3;;;;;;;4.2;100.0;100350;;;;
2022/11/21 02:41:00;;;;;;;2.3;2.3;;;;;;;4.1;100.0;100360;;;;
2022/11/21 02:42:04;;;;;;;2.3;2.3;;;;;;;4.1;100.0;100360;;;;
2022/11/21 02:43:05;;;;;;;2.3;2.3;;;;;;;4.2;100.0;100360;;;;
2022/11/21 02:44:04;;;;;;;2.3;2.3;;;;;;;4.2;100.0;100360;;;;
2022/11/21 02:45:08;;;;;;;2.3;2.3;;;;;;;4.2;100.0;100360;;;;
2022/11/21 02:46:00;;;;;;;2.3;2.3;;;;;;;4.2;100.0;100360;;;;
2022/11/21 02:47:00;;;;;;;2.3;2.3;;;;;;;4.3;100.0;100360;;;;
2022/11/21 02:48:04;;;;;;;2.3;2.3;;;;;;;4.3;100.0;100360;;;;
2022/11/21 02:49:03;;;;;;;2.3;2.3;;;;;;;4.3;100.0;100370;;;;
2022/11/21 02:50:00;;;;;;;2.7;2.6;;;;;;;4.3;100.0;100370;;;;
2022/11/21 02:51:00;;;;;;;2.7;2.6;;;;;;;4.2;100.0;100370;;;;
2022/11/21 02:52:00;;;;;;;2.7;2.6;;;;;;;4.2;100.0;100370;;;;
2022/11/21 02:53:00;;;;;;;2.7;2.6;;;;;;;4.1;100.0;100370;;;;
2022/11/21 02:54:00;;;;;;;2.7;2.6;;;;;;;4.1;100.0;100370;;;;
2022/11/21 02:55:00;;;;;;;2.7;2.6;;;;;;;4.1;100.0;100370;;;;
2022/11/21 02:56:00;;;;;;;2.7;2.6;;;;;;;4.1;100.0;100370;;;;
2022/11/21 02:57:00;;;;;;;2.7;2.6;;;;;;;4.2;100.0;100360;;;;
2022/11/21 02:58:05;;;;;;;2.7;2.6;;;;;;;4.2;100.0;100360;;;;
2022/11/21 02:59:00;;;;;;;2.7;2.6;;;;;;;4.3;100.0;100350;;;;
2022/11/21 03:00:00;;;;;;;2.7;2.6;;;;;;;4.3;100.0;100350;;;;
2022/11/21 03:01:00;;;;;;;2.7;2.6;;;;;;;4.3;100.0;100360;;;;
2022/11/21 03:02:01;;;;;;;2.7;2.6;;;;;;;4.3;100.0;100360;;;;
2022/11/21 03:03:00;;;;;;;2.7;2.6;;;;;;;4.3;100.0;100360;;;;
2022/11/21 03:04:00;;;;;;;2.7;2.6;;;;;;;4.3;100.0;100360;;;;
2022/11/21 03:05:00;;;;;;;2.7;2.6;;;;;;;4.2;100.0;100360;;;;
2022/11/21 03:06:00;;;;;;;2.7;2.6;;;;;;;4.2;100.0;100360;;;;
2022/11/21 03:07:00;;;;;;;2.7;2.6;;;;;;;4.2;100.0;100360;;;;
2022/11/21 03:08:00;;;;;;;2.7;2.6;;;;;;;4.2;100.0;100360;;;;
2022/11/21 03:09:00;;;;;;;2.7;2.6;;;;;;;4.0;100.0;100360;;;;
2022/11/21 03:10:00;;;;;;;2.3;2.3;;;;;;;4.0;100.0;100360;;;;
2022/11/21 03:11:00;;;;;;;2.3;2.3;;;;;;;3.9;100.0;100360;;;;
2022/11/21 03:12:04;;;;;;;2.3;2.3;;;;;;;3.9;100.0;100360;;;;
2022/11/21 03:13:00;;;;;;;2.3;2.3;;;;;;;4.0;100.0;100360;;;;
2022/11/21 03:14:00;;;;;;;2.3;2.3;;;;;;;4.0;100.0;100360;;;;
2022/11/21 03:15:00;;;;;;;2.3;2.3;;;;;;;4.0;100.0;100360;;;;
2022/11/21 03:16:00;;;;;;;2.3;2.3;;;;;;;4.0;100.0;100360;;;;
2022/11/21 03:17:00;;;;;;;2.3;2.3;;;;;;;4.0;100.0;100360;;;;
2022/11/21 03:18:01;;;;;;;2.3;2.3;;;;;;;4.0;100.0;100360;;;;
2022/11/21 03:19:00;;;;;;;2.3;2.3;;;;;;;4.2;100.0;100340;;;;
2022/11/21 03:20:00;;;;;;;2.3;2.3;;;;;;;4.2;100.0;100340;;;;
2022/11/21 03:21:00;;;;;;;2.3;2.3;;;;;;;4.1;100.0;100340;;;;
2022/11/21 03:22:00;;;;;;;2.3;2.3;;;;;;;4.1;100.0;100340;;;;
2022/11/21 03:23:00;;;;;;;2.3;2.3;;;;;;;4.2;100.0;100330;;;;
2022/11/21 03:24:00;;;;;;;2.3;2.3;;;;;;;4.2;100.0;100330;;;;
2022/11/21 03:25:00;;;;;;;2.3;2.3;;;;;;;4.2;100.0;100330;;;;
2022/11/21 03:26:00;;;;;;;2.3;2.3;;;;;;;4.2;100.0;100330;;;;
2022/11/21 03:27:00;;;;;;;2.3;2.3;;;;;;;4.2;100.0;100320;;;;
2022/11/21 03:28:00;;;;;;;2.3;2.3;;;;;;;4.2;100.0;100320;;;;
2022/11/21 03:29:00;;;;;;;2.3;2.3;;;;;;;4.3;100.0;100320;;;;
2022/11/21 03:30:00;;;;;;;4.4;4.1;;;;;;;4.3;100.0;100320;;;;
2022/11/21 03:31:00;;;;;;;4.4;4.1;;;;;;;4.3;100.0;100320;;;;
2022/11/21 03:32:00;;;;;;;4.4;4.1;;;;;;;4.3;100.0;100320;;;;
2022/11/21 03:33:00;;;;;;;4.4;4.1;;;;;;;4.4;100.0;100320;;;;
2022/11/21 03:34:00;;;;;;;4.4;4.1;;;;;;;4.4;100.0;100320;;;;
2022/11/21 03:35:00;;;;;;;4.4;4.1;;;;;;;4.3;100.0;100320;;;;
2022/11/21 03:36:00;;;;;;;4.4;4.1;;;;;;;4.3;100.0;100320;;;;
2022/11/21 03:37:00;;;;;;;4.4;4.1;;;;;;;4.2;100.0;100320;;;;
2022/11/21 03:38:00;;;;;;;4.4;4.1;;;;;;;4.2;100.0;100320;;;;
2022/11/21 03:39:00;;;;;;;4.4;4.1;;;;;;;4.1;100.0;100320;;;;
2022/11/21 03:40:00;;;;;;;4.4;4.1;;;;;;;4.1;100.0;100320;;;;
2022/11/21 03:41:04;;;;;;;4.4;4.1;;;;;;;4.1;100.0;100320;;;;
2022/11/21 03:42:00;;;;;;;4.4;4.1;;;;;;;4.1;100.0;100320;;;;
2022/11/21 03:43:04;;;;;;;4.4;4.1;;;;;;;4.0;100.0;100320;;;;
2022/11/21 03:44:02;;;;;;;4.4;4.1;;;;;;;4.0;100.0;100320;;;;
2022/11/21 03:45:00;;;;;;;4.4;4.1;;;;;;;4.2;100.0;100320;;;;
2022/11/21 03:46:00;;;;;;;4.4;4.1;;;;;;;4.2;100.0;100320;;;;
2022/11/21 03:47:00;;;;;;;4.4;4.1;;;;;;;4.3;100.0;100320;;;;
2022/11/21 03:48:00;;;;;;;4.4;4.1;;;;;;;4.3;100.0;100320;;;;
2022/11/21 03:49:00;;;;;;;4.4;4.1;;;;;;;4.4;100.0;100320;;;;
2022/11/21 03:50:00;;;;;;;2.2;2.2;;;;;;;4.4;100.0;100320;;;;
2022/11/21 03:51:00;;;;;;;2.2;2.2;;;;;;;4.3;100.0;100330;;;;
2022/11/21 03:52:00;;;;;;;2.2;2.2;;;;;;;4.3;100.0;100330;;;;
2022/11/21 03:53:00;;;;;;;2.2;2.2;;;;;;;4.3;100.0;100330;;;;
2022/11/21 03:54:00;;;;;;;2.2;2.2;;;;;;;4.3;100.0;100330;;;;
2022/11/21 03:55:00;;;;;;;2.2;2.2;;;;;;;4.3;100.0;100320;;;;
2022/11/21 03:56:00;;;;;;;2.2;2.2;;;;;;;4.3;100.0;100320;;;;
2022/11/21 03:57:00;;;;;;;2.2;2.2;;;;;;;4.3;100.0;100320;;;;
2022/11/21 03:58:00;;;;;;;2.2;2.2;;;;;;;4.3;100.0;100320;;;;
2022/11/21 03:59:00;;;;;;;2.2;2.2;;;;;;;4.3;100.0;100330;;;;
2022/11/21 04:00:00;;;;;;;2.2;2.2;;;;;;;4.3;100.0;100330;;;;
2022/11/21 04:01:00;;;;;;;2.2;2.2;;;;;;;4.3;100.0;100330;;;;
2022/11/21 04:02:00;;;;;;;2.2;2.2;;;;;;;4.3;100.0;100330;;;;
2022/11/21 04:03:00;;;;;;;2.2;2.2;;;;;;;4.3;100.0;100330;;;;
2022/11/21 04:04:00;;;;;;;2.2;2.2;;;;;;;4.3;100.0;100330;;;;
2022/11/21 04:05:00;;;;;;;2.2;2.2;;;;;;;4.3;100.0;100330;;;;
2022/11/21 04:06:00;;;;;;;2.2;2.2;;;;;;;4.3;100.0;100330;;;;
2022/11/21 04:07:00;;;;;;;2.2;2.2;;;;;;;4.1;100.0;100340;;;;
2022/11/21 04:08:00;;;;;;;2.2;2.2;;;;;;;4.1;100.0;100340;;;;
2022/11/21 04:09:00;;;;;;;2.2;2.2;;;;;;;4.3;100.0;100340;;;;
2022/11/21 04:10:00;;;;;;;2.2;2.2;;;;;;;4.3;100.0;100340;;;;
2022/11/21 04:11:00;;;;;;;2.2;2.2;;;;;;;4.2;100.0;100330;;;;
2022/11/21 04:12:06;;;;;;;2.2;2.2;;;;;;;4.2;100.0;100330;;;;
2022/11/21 04:13:00;;;;;;;2.2;2.2;;;;;;;4.1;100.0;100330;;;;
2022/11/21 04:14:00;;;;;;;2.2;2.2;;;;;;;4.1;100.0;100330;;;;
2022/11/21 04:15:00;;;;;;;2.2;2.2;;;;;;;4.3;100.0;100320;;;;
2022/11/21 04:16:00;;;;;;;2.2;2.2;;;;;;;4.3;100.0;100320;;;;
2022/11/21 04:18:00;;;;;;;2.2;2.2;;;;;;;4.3;100.0;100330;;;;
2022/11/21 04:19:00;;;;;;;2.2;2.2;;;;;;;4.2;100.0;100340;;;;
2022/11/21 04:20:00;;;;;;;2.2;2.2;;;;;;;4.2;100.0;100340;;;;
2022/11/21 04:21:01;;;;;;;2.2;2.2;;;;;;;4.2;100.0;100340;;;;
2022/11/21 04:22:00;;;;;;;2.2;2.2;;;;;;;4.2;100.0;100340;;;;
2022/11/21 04:23:00;;;;;;;2.2;2.2;;;;;;;4.3;100.0;100340;;;;
2022/11/21 04:24:00;;;;;;;2.2;2.2;;;;;;;4.3;100.0;100340;;;;
2022/11/21 04:25:00;;;;;;;2.2;2.2;;;;;;;4.3;100.0;100340;;;;
2022/11/21 04:26:00;;;;;;;2.2;2.2;;;;;;;4.3;100.0;100340;;;;
2022/11/21 04:27:00;;;;;;;2.2;2.2;;;;;;;4.2;100.0;100350;;;;
2022/11/21 04:29:00;;;;;;;2.2;2.2;;;;;;;4.4;100.0;100340;;;;
2022/11/21 04:30:00;;;;;;;2.3;2.3;;;;;;;4.4;100.0;100340;;;;
2022/11/21 04:31:10;;;;;;;2.3;2.3;;;;;;;4.4;100.0;100340;;;;
2022/11/21 04:32:00;;;;;;;2.3;2.3;;;;;;;4.4;100.0;100340;;;;
2022/11/21 04:33:00;;;;;;;2.3;2.3;;;;;;;4.3;100.0;100330;;;;
2022/11/21 04:34:00;;;;;;;2.3;2.3;;;;;;;4.3;100.0;100330;;;;
2022/11/21 04:35:00;;;;;;;2.3;2.3;;;;;;;4.3;100.0;100330;;;;
2022/11/21 04:36:00;;;;;;;2.3;2.3;;;;;;;4.3;100.0;100330;;;;
2022/11/21 04:37:00;;;;;;;2.3;2.3;;;;;;;4.5;100.0;100320;;;;
2022/11/21 04:38:00;;;;;;;2.3;2.3;;;;;;;4.5;100.0;100320;;;;
2022/11/21 04:39:00;;;;;;;2.3;2.3;;;;;;;4.3;100.0;100320;;;;
2022/11/21 04:40:00;;;;;;;2.3;2.3;;;;;;;4.3;100.0;100320;;;;
2022/11/21 04:41:00;;;;;;;2.3;2.3;;;;;;;4.3;100.0;100320;;;;
2022/11/21 04:42:00;;;;;;;2.3;2.3;;;;;;;4.3;100.0;100320;;;;
2022/11/21 04:43:00;;;;;;;2.3;2.3;;;;;;;4.3;100.0;100330;;;;
2022/11/21 04:44:00;;;;;;;2.3;2.3;;;;;;;4.3;100.0;100330;;;;
2022/11/21 04:45:00;;;;;;;2.3;2.3;;;;;;;4.4;100.0;100320;;;;
2022/11/21 04:46:00;;;;;;;2.3;2.3;;;;;;;4.4;100.0;100320;;;;
2022/11/21 04:47:05;;;;;;;2.3;2.3;;;;;;;4.4;100.0;100320;;;;
2022/11/21 04:48:00;;;;;;;2.3;2.3;;;;;;;4.4;100.0;100320;;;;
2022/11/21 04:49:00;;;;;;;2.3;2.3;;;;;;;4.3;100.0;100310;;;;
2022/11/21 04:50:00;;;;;;;2.5;2.5;;;;;;;4.3;100.0;100310;;;;
2022/11/21 04:51:00;;;;;;;2.5;2.5;;;;;;;4.3;100.0;100310;;;;
2022/11/21 04:52:00;;;;;;;2.5;2.5;;;;;;;4.3;100.0;100310;;;;
2022/11/21 04:53:00;;;;;;;2.5;2.5;;;;;;;4.2;100.0;100320;;;;
2022/11/21 04:54:00;;;;;;;2.5;2.5;;;;;;;4.2;100.0;100320;;;;
2022/11/21 04:55:00;;;;;;;2.5;2.5;;;;;;;4.2;100.0;100310;;;;
2022/11/21 04:56:02;;;;;;;2.5;2.5;;;;;;;4.2;100.0;100310;;;;
2022/11/21 04:57:00;;;;;;;2.5;2.5;;;;;;;4.3;100.0;100310;;;;
2022/11/21 04:58:00;;;;;;;2.5;2.5;;;;;;;4.3;100.0;100310;;;;
2022/11/21 04:59:00;;;;;;;2.5;2.5;;;;;;;4.3;100.0;100300;;;;
2022/11/21 05:00:00;;;;;;;2.5;2.5;;;;;;;4.3;100.0;100300;;;;
2022/11/21 05:01:08;;;;;;;2.5;2.5;;;;;;;4.4;100.0;100300;;;;
2022/11/21 05:02:01;;;;;;;2.5;2.5;;;;;;;4.4;100.0;100300;;;;
2022/11/21 05:03:02;;;;;;;2.5;2.5;;;;;;;4.2;100.0;100300;;;;
2022/11/21 05:04:00;;;;;;;2.5;2.5;;;;;;;4.2;100.0;100300;;;;
2022/11/21 05:05:00;;;;;;;2.5;2.5;;;;;;;4.2;100.0;100290;;;;
2022/11/21 05:06:00;;;;;;;2.5;2.5;;;;;;;4.2;100.0;100290;;;;
2022/11/21 05:07:00;;;;;;;2.5;2.5;;;;;;;4.2;100.0;100290;;;;
2022/11/21 05:08:00;;;;;;;2.5;2.5;;;;;;;4.2;100.0;100290;;;;
2022/11/21 05:09:00;;;;;;;2.5;2.5;;;;;;;4.2;100.0;100290;;;;
2022/11/21 05:10:00;;;;;;;2.3;2.3;;;;;;;4.2;100.0;100290;;;;
2022/11/21 05:14:00;;;;;;;2.3;2.3;;;;;;;4.1;100.0;100280;;;;
2022/11/21 05:15:00;;;;;;;2.3;2.3;;;;;;;4.1;100.0;100280;;;;
2022/11/21 05:16:00;;;;;;;2.3;2.3;;;;;;;4.1;100.0;100280;;;;
2022/11/21 05:17:00;;;;;;;2.3;2.3;;;;;;;4.1;100.0;100280;;;;
2022/11/21 05:18:00;;;;;;;2.3;2.3;;;;;;;4.1;100.0;100280;;;;
2022/11/21 05:19:00;;;;;;;2.3;2.3;;;;;;;4.1;100.0;100280;;;;
2022/11/21 05:20:00;;;;;;;2.3;2.3;;;;;;;4.1;100.0;100280;;;;
2022/11/21 05:21:00;;;;;;;2.3;2.3;;;;;;;4.2;100.0;100270;;;;
2022/11/21 05:22:00;;;;;;;2.3;2.3;;;;;;;4.2;100.0;100270;;;;
2022/11/21 05:23:00;;;;;;;2.3;2.3;;;;;;;4.1;100.0;100260;;;;
2022/11/21 05:24:00;;;;;;;2.3;2.3;;;;;;;4.1;100.0;100260;;;;
2022/11/21 05:25:00;;;;;;;2.3;2.3;;;;;;;4.3;100.0;100260;;;;
2022/11/21 05:26:00;;;;;;;2.3;2.3;;;;;;;4.3;100.0;100260;;;;
2022/11/21 05:27:00;;;;;;;2.3;2.3;;;;;;;4.2;100.0;100260;;;;
2022/11/21 05:28:00;;;;;;;2.3;2.3;;;;;;;4.2;100.0;100260;;;;
2022/11/21 05:29:00;;;;;;;2.3;2.3;;;;;;;4.1;100.0;100260;;;;
2022/11/21 05:30:00;;;;;;;2.4;2.4;;;;;;;4.1;100.0;100260;;;;
2022/11/21 05:31:00;;;;;;;2.4;2.4;;;;;;;4.2;100.0;100260;;;;
2022/11/21 05:32:00;;;;;;;2.4;2.4;;;;;;;4.2;100.0;100260;;;;
2022/11/21 05:33:00;;;;;;;2.4;2.4;;;;;;;4.2;100.0;100260;;;;
2022/11/21 05:34:00;;;;;;;2.4;2.4;;;;;;;4.2;100.0;100260;;;;
2022/11/21 05:35:00;;;;;;;2.4;2.4;;;;;;;4.2;100.0;100260;;;;
2022/11/21 05:36:00;;;;;;;2.4;2.4;;;;;;;4.2;100.0;100260;;;;
2022/11/21 05:37:00;;;;;;;2.4;2.4;;;;;;;4.2;100.0;100260;;;;
2022/11/21 05:38:00;;;;;;;2.4;2.4;;;;;;;4.2;100.0;100260;;;;
2022/11/21 05:39:00;;;;;;;2.4;2.4;;;;;;;4.1;100.0;100260;;;;
2022/11/21 05:40:00;;;;;;;2.4;2.4;;;;;;;4.1;100.0;100260;;;;
2022/11/21 05:41:00;;;;;;;2.4;2.4;;;;;;;4.1;100.0;100260;;;;
2022/11/21 05:42:03;;;;;;;2.4;2.4;;;;;;;4.1;100.0;100260;;;;
2022/11/21 05:44:00;;;;;;;2.4;2.4;;;;;;;4.1;100.0;100260;;;;
2022/11/21 05:45:00;;;;;;;2.4;2.4;;;;;;;4.2;100.0;100260;;;;
2022/11/21 05:46:00;;;;;;;2.4;2.4;;;;;;;4.2;100.0;100260;;;;
2022/11/21 05:47:00;;;;;;;2.4;2.4;;;;;;;4.2;100.0;100260;;;;
2022/11/21 05:48:00;;;;;;;2.4;2.4;;;;;;;4.2;100.0;100260;;;;
2022/11/21 05:49:00;;;;;;;2.3;2.3;;;;;;;4.2;100.0;100260;;;;
2022/11/21 05:50:00;;;;;;;2.3;2.3;;;;;;;4.2;100.0;100260;;;;
2022/11/21 05:51:00;;;;;;;2.3;2.3;;;;;;;4.2;100.0;100260;;;;
2022/11/21 05:52:00;;;;;;;2.3;2.3;;;;;;;4.2;100.0;100260;;;;
2022/11/21 05:53:01;;;;;;;2.3;2.3;;;;;;;4.2;100.0;100260;;;;
2022/11/21 05:54:00;;;;;;;2.3;2.3;;;;;;;4.2;100.0;100260;;;;
2022/11/21 05:55:00;;;;;;;2.3;2.3;;;;;;;4.2;100.0;100250;;;;
2022/11/21 05:56:02;;;;;;;2.3;2.3;;;;;;;4.2;100.0;100250;;;;
2022/11/21 05:57:00;;;;;;;2.3;2.3;;;;;;;4.3;100.0;100260;;;;
2022/11/21 05:58:00;;;;;;;2.3;2.3;;;;;;;4.3;100.0;100260;;;;
2022/11/21 05:59:00;;;;;;;2.3;2.3;;;;;;;4.2;100.0;100260;;;;
2022/11/21 06:00:00;;;;;;;2.3;2.3;;;;;;;4.2;100.0;100260;;;;
2022/11/21 06:01:00;;;;;;;2.3;2.3;;;;;;;4.3;100.0;100260;;;;
2022/11/21 06:04:00;;;;;;;2.3;2.3;;;;;;;4.3;100.0;100260;;;;
2022/11/21 06:05:00;;;;;;;2.3;2.3;;;;;;;4.4;100.0;100260;;;;
2022/11/21 06:06:03;;;;;;;2.3;2.3;;;;;;;4.4;100.0;100260;;;;
2022/11/21 06:07:00;;;;;;;2.3;2.3;;;;;;;4.4;100.0;100250;;;;
2022/11/21 06:08:00;;;;;;;2.3;2.3;;;;;;;4.4;100.0;100250;;;;
2022/11/21 06:09:00;;;;;;;2.2;2.2;;;;;;;4.4;100.0;100250;;;;
2022/11/21 06:10:00;;;;;;;2.2;2.2;;;;;;;4.4;100.0;100250;;;;
2022/11/21 06:11:00;;;;;;;2.2;2.2;;;;;;;4.4;100.0;100240;;;;
2022/11/21 06:12:00;;;;;;;2.2;2.2;;;;;;;4.4;100.0;100240;;;;
2022/11/21 06:13:00;;;;;;;2.2;2.2;;;;;;;4.4;100.0;100240;;;;
2022/11/21 06:14:00;;;;;;;2.2;2.2;;;;;;;4.4;100.0;100240;;;;
2022/11/21 06:15:00;;;;;;;2.2;2.2;;;;;;;4.4;100.0;100240;;;;
2022/11/21 06:16:01;;;;;;;2.2;2.2;;;;;;;4.4;100.0;100240;;;;
2022/11/21 06:17:00;;;;;;;2.2;2.2;;;;;;;4.4;100.0;100240;;;;
2022/11/21 06:18:00;;;;;;;2.2;2.2;;;;;;;4.4;100.0;100240;;;;
2022/11/21 06:19:00;;;;;;;2.2;2.2;;;;;;;4.4;100.0;100240;;;;
2022/11/21 06:20:00;;;;;;;2.2;2.2;;;;;;;4.4;100.0;100240;;;;
2022/11/21 06:21:01;;;;;;;2.2;2.2;;;;;;;4.4;100.0;100240;;;;
2022/11/21 06:22:00;;;;;;;2.2;2.2;;;;;;;4.4;100.0;100240;;;;
2022/11/21 06:23:00;;;;;;;2.2;2.2;;;;;;;4.4;100.0;100240;;;;
2022/11/21 06:24:00;;;;;;;2.2;2.2;;;;;;;4.4;100.0;100240;;;;
2022/11/21 06:25:00;;;;;;;2.2;2.2;;;;;;;4.3;100.0;100240;;;;
2022/11/21 06:26:01;;;;;;;2.2;2.2;;;;;;;4.3;100.0;100240;;;;
2022/11/21 06:27:00;;;;;;;2.2;2.2;;;;;;;4.4;100.0;100240;;;;
2022/11/21 06:28:00;;;;;;;2.2;2.2;;;;;;;4.4;100.0;100240;;;;
2022/11/21 06:29:00;;;;;;;2.1;2.1;;;;;;;4.3;100.0;100250;;;;
2022/11/21 06:30:00;;;;;;;2.1;2.1;;;;;;;4.3;100.0;100250;;;;
2022/11/21 06:31:02;;;;;;;2.1;2.1;;;;;;;4.4;100.0;100240;;;;
2022/11/21 06:32:00;;;;;;;2.1;2.1;;;;;;;4.4;100.0;100240;;;;
2022/11/21 06:33:02;;;;;;;2.1;2.1;;;;;;;4.5;100.0;100230;;;;
2022/11/21 06:34:00;;;;;;;2.1;2.1;;;;;;;4.5;100.0;100230;;;;
2022/11/21 06:35:00;;;;;;;2.1;2.1;;;;;;;4.4;100.0;100230;;;;
2022/11/21 06:36:01;;;;;;;2.1;2.1;;;;;;;4.4;100.0;100230;;;;
2022/11/21 06:37:00;;;;;;;2.1;2.1;;;;;;;4.3;100.0;100230;;;;